sensor_id;sensor_type;location;lat;lon;timestamp;temperature;humidity
57660;DHT22;43485;45.680;15.702;2023-08-06T17:27:48;20.30;71.10
57660;DHT22;43485;45.680;15.702;2023-08-06T17:30:14;20.20;71.60
57660;DHT22;43485;45.680;15.702;2023-08-06T17:32:40;20.10;71.70
57660;DHT22;43485;45.680;15.702;2023-08-06T17:35:06;20.10;72.00
57660;DHT22;43485;45.680;15.702;2023-08-06T17:37:32;19.90;71.70
57660;DHT22;43485;45.680;15.702;2023-08-06T17:39:58;19.80;72.60
57660;DHT22;43485;45.680;15.702;2023-08-06T17:42:24;19.70;73.50
57660;DHT22;43485;45.680;15.702;2023-08-06T17:44:52;19.70;73.80
57660;DHT22;43485;45.680;15.702;2023-08-06T17:47:21;19.70;73.70
57660;DHT22;43485;45.680;15.702;2023-08-06T17:49:49;19.60;73.80
57660;DHT22;43485;45.680;15.702;2023-08-06T17:52:17;19.50;74.40
57660;DHT22;43485;45.680;15.702;2023-08-06T17:54:44;19.60;74.50
57660;DHT22;43485;45.680;15.702;2023-08-06T17:57:09;19.60;74.00
57660;DHT22;43485;45.680;15.702;2023-08-06T17:59:35;19.40;75.10
57660;DHT22;43485;45.680;15.702;2023-08-06T18:02:01;19.20;76.30
57660;DHT22;43485;45.680;15.702;2023-08-06T18:04:29;19.10;77.60
57660;DHT22;43485;45.680;15.702;2023-08-06T18:06:55;19.00;77.40
57660;DHT22;43485;45.680;15.702;2023-08-06T18:09:21;18.90;77.90
57660;DHT22;43485;45.680;15.702;2023-08-06T18:11:46;18.80;78.60
57660;DHT22;43485;45.680;15.702;2023-08-06T18:14:12;18.80;79.60
57660;DHT22;43485;45.680;15.702;2023-08-06T18:16:38;18.70;80.00
57660;DHT22;43485;45.680;15.702;2023-08-06T18:19:04;18.60;79.80
57660;DHT22;43485;45.680;15.702;2023-08-06T18:21:30;18.50;80.00
57660;DHT22;43485;45.680;15.702;2023-08-06T18:23:56;18.50;80.00
57660;DHT22;43485;45.680;15.702;2023-08-06T18:26:22;18.70;79.20
57660;DHT22;43485;45.680;15.702;2023-08-06T18:28:48;18.70;78.40
57660;DHT22;43485;45.680;15.702;2023-08-06T18:31:14;18.80;78.00
57660;DHT22;43485;45.680;15.702;2023-08-06T18:33:42;18.80;77.80
57660;DHT22;43485;45.680;15.702;2023-08-06T18:36:09;18.80;77.10
57660;DHT22;43485;45.680;15.702;2023-08-06T18:38:35;18.80;77.80
57660;DHT22;43485;45.680;15.702;2023-08-06T18:41:01;18.70;78.10
57660;DHT22;43485;45.680;15.702;2023-08-06T18:43:27;18.60;78.20
57660;DHT22;43485;45.680;15.702;2023-08-06T18:45:54;18.60;78.30
57660;DHT22;43485;45.680;15.702;2023-08-06T18:48:21;18.50;78.40
57660;DHT22;43485;45.680;15.702;2023-08-06T18:50:47;18.50;78.60
57660;DHT22;43485;45.680;15.702;2023-08-06T18:53:13;18.50;78.80
57660;DHT22;43485;45.680;15.702;2023-08-06T18:55:57;18.50;78.60
57660;DHT22;43485;45.680;15.702;2023-08-06T18:58:23;18.40;77.80
57660;DHT22;43485;45.680;15.702;2023-08-06T19:00:49;18.50;78.10
57660;DHT22;43485;45.680;15.702;2023-08-06T19:03:15;18.50;78.00
57660;DHT22;43485;45.680;15.702;2023-08-06T19:05:41;18.50;77.90
57660;DHT22;43485;45.680;15.702;2023-08-06T19:08:08;18.50;77.60
57660;DHT22;43485;45.680;15.702;2023-08-06T19:10:35;18.50;77.50
57660;DHT22;43485;45.680;15.702;2023-08-06T19:15:51;18.50;77.20
57660;DHT22;43485;45.680;15.702;2023-08-06T19:18:17;18.50;77.00
57660;DHT22;43485;45.680;15.702;2023-08-06T19:20:44;18.40;76.90
57660;DHT22;43485;45.680;15.702;2023-08-06T19:23:10;18.40;76.70
57660;DHT22;43485;45.680;15.702;2023-08-06T19:25:45;18.40;76.20
57660;DHT22;43485;45.680;15.702;2023-08-06T19:28:13;18.30;76.30
57660;DHT22;43485;45.680;15.702;2023-08-06T19:30:42;18.30;76.80
57660;DHT22;43485;45.680;15.702;2023-08-06T19:33:10;18.30;76.20
57660;DHT22;43485;45.680;15.702;2023-08-06T19:35:51;18.30;76.60
57660;DHT22;43485;45.680;15.702;2023-08-06T19:38:38;18.20;76.60
57660;DHT22;43485;45.680;15.702;2023-08-06T19:41:06;18.20;76.70
57660;DHT22;43485;45.680;15.702;2023-08-06T19:43:35;18.20;76.60
57660;DHT22;43485;45.680;15.702;2023-08-06T19:46:02;18.20;76.50
57660;DHT22;43485;45.680;15.702;2023-08-06T19:48:48;18.10;76.30
57660;DHT22;43485;45.680;15.702;2023-08-06T19:51:16;18.00;76.60
57660;DHT22;43485;45.680;15.702;2023-08-06T19:53:43;18.00;77.00
57660;DHT22;43485;45.680;15.702;2023-08-06T19:56:09;17.90;77.00
57660;DHT22;43485;45.680;15.702;2023-08-06T19:58:35;17.90;76.90
57660;DHT22;43485;45.680;15.702;2023-08-06T20:01:02;17.90;76.90
57660;DHT22;43485;45.680;15.702;2023-08-06T20:03:34;17.90;76.90
57660;DHT22;43485;45.680;15.702;2023-08-06T20:06:00;17.90;77.00
57660;DHT22;43485;45.680;15.702;2023-08-06T20:08:27;17.80;76.50
57660;DHT22;43485;45.680;15.702;2023-08-06T20:10:53;17.70;77.30
57660;DHT22;43485;45.680;15.702;2023-08-06T20:13:23;17.70;77.30
57660;DHT22;43485;45.680;15.702;2023-08-06T20:16:10;17.60;77.40
57660;DHT22;43485;45.680;15.702;2023-08-06T20:18:38;17.60;77.50
57660;DHT22;43485;45.680;15.702;2023-08-06T20:21:04;17.60;77.60
57660;DHT22;43485;45.680;15.702;2023-08-06T20:23:31;17.60;77.90
57660;DHT22;43485;45.680;15.702;2023-08-06T20:25:57;17.50;77.10
57660;DHT22;43485;45.680;15.702;2023-08-06T20:28:23;17.50;77.90
57660;DHT22;43485;45.680;15.702;2023-08-06T20:30:54;17.60;77.50
57660;DHT22;43485;45.680;15.702;2023-08-06T20:33:21;17.50;77.90
57660;DHT22;43485;45.680;15.702;2023-08-06T20:35:47;17.60;78.10
57660;DHT22;43485;45.680;15.702;2023-08-06T20:38:13;17.60;78.20
57660;DHT22;43485;45.680;15.702;2023-08-06T20:40:40;17.60;78.10
57660;DHT22;43485;45.680;15.702;2023-08-06T20:43:07;17.60;77.80
57660;DHT22;43485;45.680;15.702;2023-08-06T20:45:34;17.60;77.80
57660;DHT22;43485;45.680;15.702;2023-08-06T20:48:00;17.60;77.90
57660;DHT22;43485;45.680;15.702;2023-08-06T20:50:27;17.70;77.50
57660;DHT22;43485;45.680;15.702;2023-08-06T20:52:53;17.70;77.60
57660;DHT22;43485;45.680;15.702;2023-08-06T20:55:23;17.70;77.60
57660;DHT22;43485;45.680;15.702;2023-08-06T20:57:50;17.70;77.30
57660;DHT22;43485;45.680;15.702;2023-08-06T21:00:16;17.70;77.40
57660;DHT22;43485;45.680;15.702;2023-08-06T21:02:42;17.70;76.90
57660;DHT22;43485;45.680;15.702;2023-08-06T21:05:08;17.70;77.50
57660;DHT22;43485;45.680;15.702;2023-08-06T21:07:34;17.70;77.50
57660;DHT22;43485;45.680;15.702;2023-08-06T21:10:00;17.70;77.70
57660;DHT22;43485;45.680;15.702;2023-08-06T21:12:26;17.60;77.80
57660;DHT22;43485;45.680;15.702;2023-08-06T21:14:52;17.50;78.00
57660;DHT22;43485;45.680;15.702;2023-08-06T21:17:18;17.50;78.10
57660;DHT22;43485;45.680;15.702;2023-08-06T21:19:44;17.50;77.90
57660;DHT22;43485;45.680;15.702;2023-08-06T21:22:10;17.50;77.90
57660;DHT22;43485;45.680;15.702;2023-08-06T21:24:36;17.40;77.80
57660;DHT22;43485;45.680;15.702;2023-08-06T21:27:02;17.40;77.80
57660;DHT22;43485;45.680;15.702;2023-08-06T21:29:29;17.40;77.30
57660;DHT22;43485;45.680;15.702;2023-08-06T21:31:55;17.40;77.80
57660;DHT22;43485;45.680;15.702;2023-08-06T21:34:21;17.40;77.80
57660;DHT22;43485;45.680;15.702;2023-08-06T21:36:47;17.40;77.80
57660;DHT22;43485;45.680;15.702;2023-08-06T21:39:16;17.40;77.80
57660;DHT22;43485;45.680;15.702;2023-08-06T21:41:42;17.40;77.70
57660;DHT22;43485;45.680;15.702;2023-08-06T21:44:08;17.40;77.80
57660;DHT22;43485;45.680;15.702;2023-08-06T21:46:34;17.40;77.60
57660;DHT22;43485;45.680;15.702;2023-08-06T21:49:00;17.30;77.60
57660;DHT22;43485;45.680;15.702;2023-08-06T21:51:26;17.40;77.80
57660;DHT22;43485;45.680;15.702;2023-08-06T21:53:52;17.30;77.80
57660;DHT22;43485;45.680;15.702;2023-08-06T21:56:18;17.30;77.90
57660;DHT22;43485;45.680;15.702;2023-08-06T21:58:49;17.30;77.80
57660;DHT22;43485;45.680;15.702;2023-08-06T22:01:18;17.30;77.70
57660;DHT22;43485;45.680;15.702;2023-08-06T22:03:44;17.20;77.10
57660;DHT22;43485;45.680;15.702;2023-08-06T22:06:11;17.30;78.00
57660;DHT22;43485;45.680;15.702;2023-08-06T22:08:39;17.20;78.10
57660;DHT22;43485;45.680;15.702;2023-08-06T22:11:06;17.20;78.20
57660;DHT22;43485;45.680;15.702;2023-08-06T22:13:33;17.20;77.70
57660;DHT22;43485;45.680;15.702;2023-08-06T22:15:59;17.20;77.60
57660;DHT22;43485;45.680;15.702;2023-08-06T22:18:25;17.20;78.20
57660;DHT22;43485;45.680;15.702;2023-08-06T22:20:55;17.20;78.20
57660;DHT22;43485;45.680;15.702;2023-08-06T22:23:22;17.20;78.40
57660;DHT22;43485;45.680;15.702;2023-08-06T22:25:49;17.20;78.30
57660;DHT22;43485;45.680;15.702;2023-08-06T22:28:17;17.20;78.20
57660;DHT22;43485;45.680;15.702;2023-08-06T22:30:44;17.20;78.20
57660;DHT22;43485;45.680;15.702;2023-08-06T22:33:10;17.20;78.40
57660;DHT22;43485;45.680;15.702;2023-08-06T22:35:36;17.10;78.60
57660;DHT22;43485;45.680;15.702;2023-08-06T22:38:03;17.10;78.70
57660;DHT22;43485;45.680;15.702;2023-08-06T22:40:29;17.10;78.80
57660;DHT22;43485;45.680;15.702;2023-08-06T22:42:55;17.00;78.80
57660;DHT22;43485;45.680;15.702;2023-08-06T22:45:21;16.90;78.90
57660;DHT22;43485;45.680;15.702;2023-08-06T22:47:47;17.00;78.90
57660;DHT22;43485;45.680;15.702;2023-08-06T22:50:13;16.90;79.00
57660;DHT22;43485;45.680;15.702;2023-08-06T22:52:39;16.80;79.00
57660;DHT22;43485;45.680;15.702;2023-08-06T22:55:06;16.80;79.00
57660;DHT22;43485;45.680;15.702;2023-08-06T22:57:32;16.70;78.50
57660;DHT22;43485;45.680;15.702;2023-08-06T22:59:58;16.70;79.10
57660;DHT22;43485;45.680;15.702;2023-08-06T23:02:24;16.70;79.00
57660;DHT22;43485;45.680;15.702;2023-08-06T23:04:51;16.60;79.20
57660;DHT22;43485;45.680;15.702;2023-08-06T23:07:17;16.60;78.60
57660;DHT22;43485;45.680;15.702;2023-08-06T23:09:43;16.60;79.20
57660;DHT22;43485;45.680;15.702;2023-08-06T23:12:09;16.60;79.40
57660;DHT22;43485;45.680;15.702;2023-08-06T23:14:35;16.50;79.20
57660;DHT22;43485;45.680;15.702;2023-08-06T23:17:01;16.40;79.00
57660;DHT22;43485;45.680;15.702;2023-08-06T23:19:27;16.40;79.10
57660;DHT22;43485;45.680;15.702;2023-08-06T23:21:54;16.40;79.00
57660;DHT22;43485;45.680;15.702;2023-08-06T23:24:20;16.40;79.10
57660;DHT22;43485;45.680;15.702;2023-08-06T23:26:51;16.30;79.20
57660;DHT22;43485;45.680;15.702;2023-08-06T23:29:17;16.30;78.60
57660;DHT22;43485;45.680;15.702;2023-08-06T23:31:43;16.30;79.10
57660;DHT22;43485;45.680;15.702;2023-08-06T23:34:11;16.30;79.00
57660;DHT22;43485;45.680;15.702;2023-08-06T23:36:37;16.30;78.40
57660;DHT22;43485;45.680;15.702;2023-08-06T23:39:03;16.40;78.90
57660;DHT22;43485;45.680;15.702;2023-08-06T23:41:29;16.30;78.80
57660;DHT22;43485;45.680;15.702;2023-08-06T23:43:55;16.30;78.90
57660;DHT22;43485;45.680;15.702;2023-08-06T23:46:21;16.20;78.90
57660;DHT22;43485;45.680;15.702;2023-08-06T23:48:47;16.20;78.90
57660;DHT22;43485;45.680;15.702;2023-08-06T23:51:16;16.10;78.90
57660;DHT22;43485;45.680;15.702;2023-08-06T23:53:42;16.10;79.00
57660;DHT22;43485;45.680;15.702;2023-08-06T23:56:08;16.10;79.10
57660;DHT22;43485;45.680;15.702;2023-08-06T23:58:34;16.10;79.00
